Terminal Aerodrome Forecast
Issued by NWS Burlington, VT

Home | Current Version | Previous Version | Text Only | Print | Product List | Glossary On
Versions: 1 2 3 4 5 6 7 8 9 10 11 12 13 14
893
FTUS41 KBTV 221436 AAB
TAFBTV
TAF AMD
KBTV 221436Z 2215/2312 16013G19KT P6SM VCSH FEW020 OVC035
      TEMPO 2215/2217 4SM SHRA OVC020
     FM221700 17013G19KT P6SM OVC025
     FM221900 18013G20KT 4SM -SHRA BR OVC025
     FM222200 18006KT P6SM BKN025
     FM230400 19006KT P6SM BKN040=

USA.gov is the U.S. government's official web portal to all federal, state and local government web resources and services.